sensor_id;sensor_type;location;lat;lon;timestamp;temperature;humidity
2100;DHT22;1055;48.854;9.302;2023-03-05T00:01:08;2.70;99.90
2100;DHT22;1055;48.854;9.302;2023-03-05T00:03:34;2.80;99.90
2100;DHT22;1055;48.854;9.302;2023-03-05T00:05:59;2.80;99.90
2100;DHT22;1055;48.854;9.302;2023-03-05T00:08:27;2.90;99.90
2100;DHT22;1055;48.854;9.302;2023-03-05T00:10:57;2.80;99.90
2100;DHT22;1055;48.854;9.302;2023-03-05T00:13:24;2.80;99.90
2100;DHT22;1055;48.854;9.302;2023-03-05T00:15:49;2.90;99.90
2100;DHT22;1055;48.854;9.302;2023-03-05T00:18:15;2.90;99.90
2100;DHT22;1055;48.854;9.302;2023-03-05T00:20:41;3.00;99.90
2100;DHT22;1055;48.854;9.302;2023-03-05T00:23:06;2.90;99.90
2100;DHT22;1055;48.854;9.302;2023-03-05T00:25:34;2.80;99.90
2100;DHT22;1055;48.854;9.302;2023-03-05T00:28:00;2.80;99.90
2100;DHT22;1055;48.854;9.302;2023-03-05T00:30:26;2.70;99.90
2100;DHT22;1055;48.854;9.302;2023-03-05T00:32:51;2.70;99.90
2100;DHT22;1055;48.854;9.302;2023-03-05T00:35:17;2.70;99.90
2100;DHT22;1055;48.854;9.302;2023-03-05T00:37:43;2.80;99.90
2100;DHT22;1055;48.854;9.302;2023-03-05T00:40:09;2.80;99.90
2100;DHT22;1055;48.854;9.302;2023-03-05T00:42:34;2.80;99.90
2100;DHT22;1055;48.854;9.302;2023-03-05T00:45:04;2.80;99.90
2100;DHT22;1055;48.854;9.302;2023-03-05T00:47:29;2.90;99.90
2100;DHT22;1055;48.854;9.302;2023-03-05T00:49:55;2.80;99.90
2100;DHT22;1055;48.854;9.302;2023-03-05T00:52:21;2.80;99.90
2100;DHT22;1055;48.854;9.302;2023-03-05T00:54:46;2.90;99.90
2100;DHT22;1055;48.854;9.302;2023-03-05T00:57:12;2.90;99.90
2100;DHT22;1055;48.854;9.302;2023-03-05T00:59:37;2.90;99.90
2100;DHT22;1055;48.854;9.302;2023-03-05T01:02:03;3.00;99.90
2100;DHT22;1055;48.854;9.302;2023-03-05T01:04:29;3.10;99.90
2100;DHT22;1055;48.854;9.302;2023-03-05T01:06:54;2.90;99.90
2100;DHT22;1055;48.854;9.302;2023-03-05T01:09:20;3.00;99.90
2100;DHT22;1055;48.854;9.302;2023-03-05T01:11:46;3.40;99.90
2100;DHT22;1055;48.854;9.302;2023-03-05T01:14:12;3.70;99.90
2100;DHT22;1055;48.854;9.302;2023-03-05T01:16:38;3.90;99.90
2100;DHT22;1055;48.854;9.302;2023-03-05T01:19:04;4.10;99.90
2100;DHT22;1055;48.854;9.302;2023-03-05T01:21:29;3.90;99.90
2100;DHT22;1055;48.854;9.302;2023-03-05T01:23:55;4.10;99.90
2100;DHT22;1055;48.854;9.302;2023-03-05T01:26:20;4.30;99.90
2100;DHT22;1055;48.854;9.302;2023-03-05T01:28:46;4.00;99.90
2100;DHT22;1055;48.854;9.302;2023-03-05T01:31:12;4.00;99.90
2100;DHT22;1055;48.854;9.302;2023-03-05T01:33:38;3.60;99.90
2100;DHT22;1055;48.854;9.302;2023-03-05T01:36:11;3.30;99.90
2100;DHT22;1055;48.854;9.302;2023-03-05T01:38:40;3.30;99.90
2100;DHT22;1055;48.854;9.302;2023-03-05T01:41:06;3.10;99.90
2100;DHT22;1055;48.854;9.302;2023-03-05T01:43:32;3.30;99.90
2100;DHT22;1055;48.854;9.302;2023-03-05T01:46:27;3.30;99.90
2100;DHT22;1055;48.854;9.302;2023-03-05T01:51:24;3.50;99.90
2100;DHT22;1055;48.854;9.302;2023-03-05T01:53:51;3.50;99.90
2100;DHT22;1055;48.854;9.302;2023-03-05T01:56:18;3.30;99.90
2100;DHT22;1055;48.854;9.302;2023-03-05T01:58:44;3.60;99.90
2100;DHT22;1055;48.854;9.302;2023-03-05T02:01:10;3.70;99.90
2100;DHT22;1055;48.854;9.302;2023-03-05T02:03:36;3.70;99.90
2100;DHT22;1055;48.854;9.302;2023-03-05T02:06:02;3.80;99.90
2100;DHT22;1055;48.854;9.302;2023-03-05T02:08:28;4.00;99.90
2100;DHT22;1055;48.854;9.302;2023-03-05T02:10:54;3.70;99.90
2100;DHT22;1055;48.854;9.302;2023-03-05T02:13:27;3.70;99.90
2100;DHT22;1055;48.854;9.302;2023-03-05T02:15:55;4.10;99.90
2100;DHT22;1055;48.854;9.302;2023-03-05T02:18:22;4.20;99.90
2100;DHT22;1055;48.854;9.302;2023-03-05T02:20:58;4.40;99.90
2100;DHT22;1055;48.854;9.302;2023-03-05T02:23:26;4.50;99.90
2100;DHT22;1055;48.854;9.302;2023-03-05T02:25:52;4.60;99.90
2100;DHT22;1055;48.854;9.302;2023-03-05T02:31:24;4.80;99.90
2100;DHT22;1055;48.854;9.302;2023-03-05T02:33:50;4.20;99.90
2100;DHT22;1055;48.854;9.302;2023-03-05T02:36:16;4.00;99.90
2100;DHT22;1055;48.854;9.302;2023-03-05T02:38:43;4.00;99.90
2100;DHT22;1055;48.854;9.302;2023-03-05T02:41:09;4.10;99.90
2100;DHT22;1055;48.854;9.302;2023-03-05T02:43:35;4.30;99.90
2100;DHT22;1055;48.854;9.302;2023-03-05T02:46:00;4.30;99.90
2100;DHT22;1055;48.854;9.302;2023-03-05T02:48:26;4.40;99.90
2100;DHT22;1055;48.854;9.302;2023-03-05T02:50:52;4.20;99.90
2100;DHT22;1055;48.854;9.302;2023-03-05T02:53:18;4.00;99.90
2100;DHT22;1055;48.854;9.302;2023-03-05T02:55:47;4.30;99.90
2100;DHT22;1055;48.854;9.302;2023-03-05T02:58:13;3.80;99.90
2100;DHT22;1055;48.854;9.302;2023-03-05T03:00:39;3.50;99.90
2100;DHT22;1055;48.854;9.302;2023-03-05T03:03:04;3.90;99.90
2100;DHT22;1055;48.854;9.302;2023-03-05T03:05:30;4.20;99.90
2100;DHT22;1055;48.854;9.302;2023-03-05T03:07:55;4.20;99.90
2100;DHT22;1055;48.854;9.302;2023-03-05T03:10:21;4.00;99.90
2100;DHT22;1055;48.854;9.302;2023-03-05T03:12:47;2.90;99.90
2100;DHT22;1055;48.854;9.302;2023-03-05T03:15:15;3.70;99.90
2100;DHT22;1055;48.854;9.302;2023-03-05T03:17:41;3.90;99.90
2100;DHT22;1055;48.854;9.302;2023-03-05T03:20:10;4.20;99.90
2100;DHT22;1055;48.854;9.302;2023-03-05T03:22:38;4.20;99.90
2100;DHT22;1055;48.854;9.302;2023-03-05T03:25:04;4.20;99.90
2100;DHT22;1055;48.854;9.302;2023-03-05T03:27:30;4.20;99.90
2100;DHT22;1055;48.854;9.302;2023-03-05T03:29:55;4.20;99.90
2100;DHT22;1055;48.854;9.302;2023-03-05T03:32:21;3.90;99.90
2100;DHT22;1055;48.854;9.302;2023-03-05T03:34:46;3.60;99.90
2100;DHT22;1055;48.854;9.302;2023-03-05T03:37:13;4.00;99.90
2100;DHT22;1055;48.854;9.302;2023-03-05T03:39:39;3.90;99.90
2100;DHT22;1055;48.854;9.302;2023-03-05T03:42:04;3.70;99.90
2100;DHT22;1055;48.854;9.302;2023-03-05T03:44:30;3.90;99.90
2100;DHT22;1055;48.854;9.302;2023-03-05T03:46:57;3.80;99.90
2100;DHT22;1055;48.854;9.302;2023-03-05T03:49:27;3.60;99.90
2100;DHT22;1055;48.854;9.302;2023-03-05T03:51:57;3.90;99.90
2100;DHT22;1055;48.854;9.302;2023-03-05T03:54:28;3.70;99.90
2100;DHT22;1055;48.854;9.302;2023-03-05T03:56:57;4.00;99.90
2100;DHT22;1055;48.854;9.302;2023-03-05T03:59:28;4.20;99.90
2100;DHT22;1055;48.854;9.302;2023-03-05T04:01:57;4.00;99.90
2100;DHT22;1055;48.854;9.302;2023-03-05T04:04:23;3.80;99.90
2100;DHT22;1055;48.854;9.302;2023-03-05T04:06:50;3.40;99.90
2100;DHT22;1055;48.854;9.302;2023-03-05T04:09:16;3.10;99.90
2100;DHT22;1055;48.854;9.302;2023-03-05T04:11:41;3.00;99.90
2100;DHT22;1055;48.854;9.302;2023-03-05T04:14:07;2.90;99.90
2100;DHT22;1055;48.854;9.302;2023-03-05T04:16:33;3.00;99.90
2100;DHT22;1055;48.854;9.302;2023-03-05T04:18:58;3.50;99.90
2100;DHT22;1055;48.854;9.302;2023-03-05T04:21:24;3.20;99.90
2100;DHT22;1055;48.854;9.302;2023-03-05T04:23:49;3.10;99.90
2100;DHT22;1055;48.854;9.302;2023-03-05T04:26:15;3.20;99.90
2100;DHT22;1055;48.854;9.302;2023-03-05T04:28:40;3.40;99.90
2100;DHT22;1055;48.854;9.302;2023-03-05T04:31:06;3.10;99.90
2100;DHT22;1055;48.854;9.302;2023-03-05T04:33:32;3.10;99.90
2100;DHT22;1055;48.854;9.302;2023-03-05T04:35:58;3.20;99.90
2100;DHT22;1055;48.854;9.302;2023-03-05T04:38:23;3.30;99.90
2100;DHT22;1055;48.854;9.302;2023-03-05T04:40:49;3.60;99.90
2100;DHT22;1055;48.854;9.302;2023-03-05T04:43:15;3.60;99.90
2100;DHT22;1055;48.854;9.302;2023-03-05T04:45:41;3.60;99.90
2100;DHT22;1055;48.854;9.302;2023-03-05T04:48:07;3.70;99.90
2100;DHT22;1055;48.854;9.302;2023-03-05T04:50:33;3.90;99.90
2100;DHT22;1055;48.854;9.302;2023-03-05T04:52:59;3.90;99.90
2100;DHT22;1055;48.854;9.302;2023-03-05T04:55:25;3.90;99.90
2100;DHT22;1055;48.854;9.302;2023-03-05T04:57:51;4.00;99.90
2100;DHT22;1055;48.854;9.302;2023-03-05T05:00:17;4.00;99.90
2100;DHT22;1055;48.854;9.302;2023-03-05T05:02:44;3.80;99.90
2100;DHT22;1055;48.854;9.302;2023-03-05T05:05:15;3.70;99.90
2100;DHT22;1055;48.854;9.302;2023-03-05T05:07:41;3.90;99.90
2100;DHT22;1055;48.854;9.302;2023-03-05T05:10:08;3.90;99.90
2100;DHT22;1055;48.854;9.302;2023-03-05T05:12:34;3.80;99.90
2100;DHT22;1055;48.854;9.302;2023-03-05T05:15:00;3.90;99.90
2100;DHT22;1055;48.854;9.302;2023-03-05T05:17:26;4.00;99.90
2100;DHT22;1055;48.854;9.302;2023-03-05T05:19:54;4.00;99.90
2100;DHT22;1055;48.854;9.302;2023-03-05T05:22:20;4.00;99.90
2100;DHT22;1055;48.854;9.302;2023-03-05T05:24:45;3.90;99.90
2100;DHT22;1055;48.854;9.302;2023-03-05T05:27:11;3.80;99.90
2100;DHT22;1055;48.854;9.302;2023-03-05T05:29:37;3.80;99.90
2100;DHT22;1055;48.854;9.302;2023-03-05T05:32:03;3.90;99.90
2100;DHT22;1055;48.854;9.302;2023-03-05T05:34:28;4.00;99.90
2100;DHT22;1055;48.854;9.302;2023-03-05T05:36:54;4.00;99.90
2100;DHT22;1055;48.854;9.302;2023-03-05T05:39:19;4.00;99.90
2100;DHT22;1055;48.854;9.302;2023-03-05T05:41:45;4.00;99.90
2100;DHT22;1055;48.854;9.302;2023-03-05T05:44:14;3.80;99.90
2100;DHT22;1055;48.854;9.302;2023-03-05T05:46:39;3.70;99.90
2100;DHT22;1055;48.854;9.302;2023-03-05T05:49:05;3.70;99.90
2100;DHT22;1055;48.854;9.302;2023-03-05T05:51:30;3.70;99.90
2100;DHT22;1055;48.854;9.302;2023-03-05T05:53:56;3.90;99.90
2100;DHT22;1055;48.854;9.302;2023-03-05T05:56:22;3.80;99.90
2100;DHT22;1055;48.854;9.302;2023-03-05T05:58:48;3.80;99.90
2100;DHT22;1055;48.854;9.302;2023-03-05T06:01:23;3.80;99.90
2100;DHT22;1055;48.854;9.302;2023-03-05T06:03:49;3.90;99.90
2100;DHT22;1055;48.854;9.302;2023-03-05T06:06:17;4.10;99.90
2100;DHT22;1055;48.854;9.302;2023-03-05T06:08:43;4.30;99.90
2100;DHT22;1055;48.854;9.302;2023-03-05T06:11:09;4.30;99.90
2100;DHT22;1055;48.854;9.302;2023-03-05T06:13:35;4.30;99.90
2100;DHT22;1055;48.854;9.302;2023-03-05T06:16:04;4.20;99.90
2100;DHT22;1055;48.854;9.302;2023-03-05T06:18:30;4.30;99.90
2100;DHT22;1055;48.854;9.302;2023-03-05T06:20:57;4.10;99.90
2100;DHT22;1055;48.854;9.302;2023-03-05T06:23:24;4.10;99.90
2100;DHT22;1055;48.854;9.302;2023-03-05T06:25:50;4.10;99.90
2100;DHT22;1055;48.854;9.302;2023-03-05T06:28:16;4.30;99.90
2100;DHT22;1055;48.854;9.302;2023-03-05T06:30:41;4.10;99.90
2100;DHT22;1055;48.854;9.302;2023-03-05T06:33:07;4.30;99.90
2100;DHT22;1055;48.854;9.302;2023-03-05T06:35:33;4.40;99.90
2100;DHT22;1055;48.854;9.302;2023-03-05T06:37:58;4.50;99.90
2100;DHT22;1055;48.854;9.302;2023-03-05T06:40:24;4.50;99.90
2100;DHT22;1055;48.854;9.302;2023-03-05T06:42:50;4.50;99.90
2100;DHT22;1055;48.854;9.302;2023-03-05T06:45:15;4.40;99.90
2100;DHT22;1055;48.854;9.302;2023-03-05T06:47:41;4.50;99.90
2100;DHT22;1055;48.854;9.302;2023-03-05T06:50:07;4.50;99.90
2100;DHT22;1055;48.854;9.302;2023-03-05T06:52:33;4.60;99.90
2100;DHT22;1055;48.854;9.302;2023-03-05T06:54:59;4.80;99.90
2100;DHT22;1055;48.854;9.302;2023-03-05T06:57:24;4.90;99.90
2100;DHT22;1055;48.854;9.302;2023-03-05T06:59:50;5.00;99.90
2100;DHT22;1055;48.854;9.302;2023-03-05T07:02:16;4.90;99.90
2100;DHT22;1055;48.854;9.302;2023-03-05T07:04:43;4.60;99.90
2100;DHT22;1055;48.854;9.302;2023-03-05T07:07:09;4.90;99.90
2100;DHT22;1055;48.854;9.302;2023-03-05T07:09:34;5.00;99.90
2100;DHT22;1055;48.854;9.302;2023-03-05T07:12:08;4.90;99.90
2100;DHT22;1055;48.854;9.302;2023-03-05T07:14:34;4.70;99.90
2100;DHT22;1055;48.854;9.302;2023-03-05T07:17:00;4.60;99.90
2100;DHT22;1055;48.854;9.302;2023-03-05T07:19:26;4.70;99.90
2100;DHT22;1055;48.854;9.302;2023-03-05T07:21:52;4.70;99.90
2100;DHT22;1055;48.854;9.302;2023-03-05T07:24:17;4.80;99.90
2100;DHT22;1055;48.854;9.302;2023-03-05T07:26:43;4.70;99.90
2100;DHT22;1055;48.854;9.302;2023-03-05T07:29:08;4.80;99.90
2100;DHT22;1055;48.854;9.302;2023-03-05T07:31:34;4.80;99.90
2100;DHT22;1055;48.854;9.302;2023-03-05T07:34:01;4.80;99.90
2100;DHT22;1055;48.854;9.302;2023-03-05T07:36:27;4.70;99.90
2100;DHT22;1055;48.854;9.302;2023-03-05T07:38:53;4.90;99.90
2100;DHT22;1055;48.854;9.302;2023-03-05T07:41:19;5.10;99.90
2100;DHT22;1055;48.854;9.302;2023-03-05T07:43:47;5.20;99.90
2100;DHT22;1055;48.854;9.302;2023-03-05T07:46:15;4.80;99.90
2100;DHT22;1055;48.854;9.302;2023-03-05T07:48:41;5.00;99.90
2100;DHT22;1055;48.854;9.302;2023-03-05T07:51:11;4.90;99.90
2100;DHT22;1055;48.854;9.302;2023-03-05T07:53:39;4.90;99.90
2100;DHT22;1055;48.854;9.302;2023-03-05T07:56:06;5.20;99.90
2100;DHT22;1055;48.854;9.302;2023-03-05T07:58:31;5.00;99.90
2100;DHT22;1055;48.854;9.302;2023-03-05T08:00:57;4.60;99.90
2100;DHT22;1055;48.854;9.302;2023-03-05T08:03:23;4.70;99.90
2100;DHT22;1055;48.854;9.302;2023-03-05T08:05:48;4.70;99.90
2100;DHT22;1055;48.854;9.302;2023-03-05T08:08:14;4.90;99.90
2100;DHT22;1055;48.854;9.302;2023-03-05T08:10:40;5.00;99.90
2100;DHT22;1055;48.854;9.302;2023-03-05T08:13:07;5.00;99.90
2100;DHT22;1055;48.854;9.302;2023-03-05T08:15:32;4.90;99.90
2100;DHT22;1055;48.854;9.302;2023-03-05T08:17:58;4.40;99.90
2100;DHT22;1055;48.854;9.302;2023-03-05T08:20:25;4.70;99.90
2100;DHT22;1055;48.854;9.302;2023-03-05T08:22:50;4.70;99.90
2100;DHT22;1055;48.854;9.302;2023-03-05T08:25:16;4.90;99.90
2100;DHT22;1055;48.854;9.302;2023-03-05T08:27:43;4.90;99.90
2100;DHT22;1055;48.854;9.302;2023-03-05T08:30:13;5.20;99.90
2100;DHT22;1055;48.854;9.302;2023-03-05T08:32:39;5.30;99.90
2100;DHT22;1055;48.854;9.302;2023-03-05T08:35:05;5.00;99.90
2100;DHT22;1055;48.854;9.302;2023-03-05T08:37:31;5.30;99.90
2100;DHT22;1055;48.854;9.302;2023-03-05T08:39:57;5.30;99.90
2100;DHT22;1055;48.854;9.302;2023-03-05T08:42:24;5.20;99.90
2100;DHT22;1055;48.854;9.302;2023-03-05T08:44:50;5.40;99.90
2100;DHT22;1055;48.854;9.302;2023-03-05T08:47:16;5.30;99.90
2100;DHT22;1055;48.854;9.302;2023-03-05T08:49:43;5.30;99.90
2100;DHT22;1055;48.854;9.302;2023-03-05T08:52:09;5.30;99.90
2100;DHT22;1055;48.854;9.302;2023-03-05T08:54:36;5.10;99.90
2100;DHT22;1055;48.854;9.302;2023-03-05T08:57:02;5.10;99.90
2100;DHT22;1055;48.854;9.302;2023-03-05T08:59:28;5.20;99.90
2100;DHT22;1055;48.854;9.302;2023-03-05T09:01:54;5.10;99.90
2100;DHT22;1055;48.854;9.302;2023-03-05T09:04:20;4.90;99.90
2100;DHT22;1055;48.854;9.302;2023-03-05T09:06:46;5.10;99.90
2100;DHT22;1055;48.854;9.302;2023-03-05T09:09:11;4.90;99.90
2100;DHT22;1055;48.854;9.302;2023-03-05T09:11:38;4.90;99.90
2100;DHT22;1055;48.854;9.302;2023-03-05T09:14:05;5.00;99.90
2100;DHT22;1055;48.854;9.302;2023-03-05T09:16:32;5.00;99.90
2100;DHT22;1055;48.854;9.302;2023-03-05T09:18:58;4.90;99.90
2100;DHT22;1055;48.854;9.302;2023-03-05T09:21:25;4.60;99.90
2100;DHT22;1055;48.854;9.302;2023-03-05T09:23:51;4.70;99.90
2100;DHT22;1055;48.854;9.302;2023-03-05T09:26:17;4.80;99.90
2100;DHT22;1055;48.854;9.302;2023-03-05T09:28:44;5.00;99.90
2100;DHT22;1055;48.854;9.302;2023-03-05T09:31:11;5.00;99.90
2100;DHT22;1055;48.854;9.302;2023-03-05T09:33:37;5.00;99.90
2100;DHT22;1055;48.854;9.302;2023-03-05T09:36:04;5.20;99.90
2100;DHT22;1055;48.854;9.302;2023-03-05T09:38:31;5.10;99.90
2100;DHT22;1055;48.854;9.302;2023-03-05T09:41:02;5.30;99.90
2100;DHT22;1055;48.854;9.302;2023-03-05T09:46:54;5.40;99.90
2100;DHT22;1055;48.854;9.302;2023-03-05T09:52:12;5.50;99.90
2100;DHT22;1055;48.854;9.302;2023-03-05T09:54:44;5.70;99.90
2100;DHT22;1055;48.854;9.302;2023-03-05T09:57:16;5.50;99.90
2100;DHT22;1055;48.854;9.302;2023-03-05T10:00:27;5.60;99.90
2100;DHT22;1055;48.854;9.302;2023-03-05T10:02:58;5.60;99.90
2100;DHT22;1055;48.854;9.302;2023-03-05T10:05:42;5.70;99.90
2100;DHT22;1055;48.854;9.302;2023-03-05T10:08:11;5.70;99.90
2100;DHT22;1055;48.854;9.302;2023-03-05T10:10:43;6.00;99.90
2100;DHT22;1055;48.854;9.302;2023-03-05T10:13:26;6.10;99.90
2100;DHT22;1055;48.854;9.302;2023-03-05T10:29:59;6.10;99.90
2100;DHT22;1055;48.854;9.302;2023-03-05T10:32:42;6.00;99.90
2100;DHT22;1055;48.854;9.302;2023-03-05T10:40:44;6.40;99.90
2100;DHT22;1055;48.854;9.302;2023-03-05T10:45:58;6.20;99.90
2100;DHT22;1055;48.854;9.302;2023-03-05T10:48:57;5.70;99.90
2100;DHT22;1055;48.854;9.302;2023-03-05T10:51:40;5.60;99.90
2100;DHT22;1055;48.854;9.302;2023-03-05T10:54:23;5.20;99.90
2100;DHT22;1055;48.854;9.302;2023-03-05T10:57:16;5.20;99.90
2100;DHT22;1055;48.854;9.302;2023-03-05T10:59:48;5.20;99.90
2100;DHT22;1055;48.854;9.302;2023-03-05T11:02:18;5.10;99.90
2100;DHT22;1055;48.854;9.302;2023-03-05T11:04:50;5.30;99.90
2100;DHT22;1055;48.854;9.302;2023-03-05T11:10:13;5.60;99.90
2100;DHT22;1055;48.854;9.302;2023-03-05T11:12:39;5.60;99.90
2100;DHT22;1055;48.854;9.302;2023-03-05T11:20:29;6.00;99.90
2100;DHT22;1055;48.854;9.302;2023-03-05T11:23:29;6.10;99.90
2100;DHT22;1055;48.854;9.302;2023-03-05T11:28:32;6.10;99.90
2100;DHT22;1055;48.854;9.302;2023-03-05T11:31:01;6.00;99.90
2100;DHT22;1055;48.854;9.302;2023-03-05T11:33:28;5.60;99.90
2100;DHT22;1055;48.854;9.302;2023-03-05T11:36:22;5.80;99.90
2100;DHT22;1055;48.854;9.302;2023-03-05T11:38:53;6.00;99.90
2100;DHT22;1055;48.854;9.302;2023-03-05T11:41:37;5.90;99.90
2100;DHT22;1055;48.854;9.302;2023-03-05T11:44:21;6.00;99.90
2100;DHT22;1055;48.854;9.302;2023-03-05T11:46:54;6.00;99.90
2100;DHT22;1055;48.854;9.302;2023-03-05T11:49:24;6.20;99.90
2100;DHT22;1055;48.854;9.302;2023-03-05T11:51:52;6.10;99.90
2100;DHT22;1055;48.854;9.302;2023-03-05T11:54:23;6.10;99.90
2100;DHT22;1055;48.854;9.302;2023-03-05T11:56:51;5.80;99.90
2100;DHT22;1055;48.854;9.302;2023-03-05T11:59:28;5.50;99.90
2100;DHT22;1055;48.854;9.302;2023-03-05T12:01:56;5.90;99.90
2100;DHT22;1055;48.854;9.302;2023-03-05T12:04:23;6.20;99.90
2100;DHT22;1055;48.854;9.302;2023-03-05T12:07:00;6.20;99.90
2100;DHT22;1055;48.854;9.302;2023-03-05T12:12:00;6.20;99.90
2100;DHT22;1055;48.854;9.302;2023-03-05T12:14:40;5.90;99.90
2100;DHT22;1055;48.854;9.302;2023-03-05T12:17:17;5.60;99.90
2100;DHT22;1055;48.854;9.302;2023-03-05T12:22:28;5.90;99.90
2100;DHT22;1055;48.854;9.302;2023-03-05T12:25:43;6.00;99.90
2100;DHT22;1055;48.854;9.302;2023-03-05T12:28:59;6.30;99.90
2100;DHT22;1055;48.854;9.302;2023-03-05T12:33:39;6.20;99.90
2100;DHT22;1055;48.854;9.302;2023-03-05T12:38:56;6.60;99.90
2100;DHT22;1055;48.854;9.302;2023-03-05T12:48:58;6.90;99.90
2100;DHT22;1055;48.854;9.302;2023-03-05T12:51:32;6.90;99.90
2100;DHT22;1055;48.854;9.302;2023-03-05T12:54:37;6.70;99.90
2100;DHT22;1055;48.854;9.302;2023-03-05T12:57:16;6.90;99.90
2100;DHT22;1055;48.854;9.302;2023-03-05T12:59:47;6.60;99.90
2100;DHT22;1055;48.854;9.302;2023-03-05T13:02:38;6.80;99.90
2100;DHT22;1055;48.854;9.302;2023-03-05T13:07:49;6.80;99.90
2100;DHT22;1055;48.854;9.302;2023-03-05T13:10:27;6.70;99.90
2100;DHT22;1055;48.854;9.302;2023-03-05T13:12:54;6.30;99.90
2100;DHT22;1055;48.854;9.302;2023-03-05T13:15:22;6.50;99.90
2100;DHT22;1055;48.854;9.302;2023-03-05T13:18:01;5.90;99.90
2100;DHT22;1055;48.854;9.302;2023-03-05T13:20:39;6.20;99.90
2100;DHT22;1055;48.854;9.302;2023-03-05T13:23:26;6.30;99.90
2100;DHT22;1055;48.854;9.302;2023-03-05T13:26:15;6.30;99.90
2100;DHT22;1055;48.854;9.302;2023-03-05T13:28:44;5.90;99.90
2100;DHT22;1055;48.854;9.302;2023-03-05T13:31:26;6.00;99.90
2100;DHT22;1055;48.854;9.302;2023-03-05T13:33:56;6.20;99.90
2100;DHT22;1055;48.854;9.302;2023-03-05T13:36:24;6.20;99.90
2100;DHT22;1055;48.854;9.302;2023-03-05T13:38:50;6.20;99.90
2100;DHT22;1055;48.854;9.302;2023-03-05T13:41:21;6.30;99.90
2100;DHT22;1055;48.854;9.302;2023-03-05T13:48:52;6.50;99.90
2100;DHT22;1055;48.854;9.302;2023-03-05T13:51:17;6.70;99.90
2100;DHT22;1055;48.854;9.302;2023-03-05T13:53:43;6.80;99.90
2100;DHT22;1055;48.854;9.302;2023-03-05T13:56:18;6.30;99.90
2100;DHT22;1055;48.854;9.302;2023-03-05T13:58:52;6.30;99.90
2100;DHT22;1055;48.854;9.302;2023-03-05T14:01:23;6.30;99.90
2100;DHT22;1055;48.854;9.302;2023-03-05T14:03:50;6.20;99.90
2100;DHT22;1055;48.854;9.302;2023-03-05T14:06:20;6.20;99.90
2100;DHT22;1055;48.854;9.302;2023-03-05T14:09:02;6.10;99.90
2100;DHT22;1055;48.854;9.302;2023-03-05T14:11:29;6.10;99.90
2100;DHT22;1055;48.854;9.302;2023-03-05T14:14:06;5.80;99.90
2100;DHT22;1055;48.854;9.302;2023-03-05T14:16:32;5.80;99.90
2100;DHT22;1055;48.854;9.302;2023-03-05T14:19:02;5.90;99.90
2100;DHT22;1055;48.854;9.302;2023-03-05T14:21:46;5.70;99.90
2100;DHT22;1055;48.854;9.302;2023-03-05T14:24:19;5.80;99.90
2100;DHT22;1055;48.854;9.302;2023-03-05T14:26:57;5.10;99.90
2100;DHT22;1055;48.854;9.302;2023-03-05T14:29:24;5.30;99.90
2100;DHT22;1055;48.854;9.302;2023-03-05T14:31:57;5.20;99.90
2100;DHT22;1055;48.854;9.302;2023-03-05T14:34:30;5.10;99.90
2100;DHT22;1055;48.854;9.302;2023-03-05T14:36:58;5.30;99.90
2100;DHT22;1055;48.854;9.302;2023-03-05T14:39:39;5.00;99.90
2100;DHT22;1055;48.854;9.302;2023-03-05T14:42:24;5.30;99.90
2100;DHT22;1055;48.854;9.302;2023-03-05T14:44:52;5.00;99.90
2100;DHT22;1055;48.854;9.302;2023-03-05T14:47:18;5.10;99.90
2100;DHT22;1055;48.854;9.302;2023-03-05T14:49:43;5.00;99.90
2100;DHT22;1055;48.854;9.302;2023-03-05T14:52:14;5.10;99.90
2100;DHT22;1055;48.854;9.302;2023-03-05T14:54:39;5.20;99.90
2100;DHT22;1055;48.854;9.302;2023-03-05T14:57:05;5.30;99.90
2100;DHT22;1055;48.854;9.302;2023-03-05T14:59:31;5.40;99.90
2100;DHT22;1055;48.854;9.302;2023-03-05T15:01:56;5.40;99.90
2100;DHT22;1055;48.854;9.302;2023-03-05T15:04:22;5.40;99.90
2100;DHT22;1055;48.854;9.302;2023-03-05T15:06:49;5.30;99.90
2100;DHT22;1055;48.854;9.302;2023-03-05T15:09:18;5.40;99.90
2100;DHT22;1055;48.854;9.302;2023-03-05T15:11:49;5.10;99.90
2100;DHT22;1055;48.854;9.302;2023-03-05T15:14:23;4.90;99.90
2100;DHT22;1055;48.854;9.302;2023-03-05T15:16:50;5.10;99.90
2100;DHT22;1055;48.854;9.302;2023-03-05T15:19:17;5.10;99.90
2100;DHT22;1055;48.854;9.302;2023-03-05T15:21:43;5.20;99.90
2100;DHT22;1055;48.854;9.302;2023-03-05T15:24:09;5.30;99.90
2100;DHT22;1055;48.854;9.302;2023-03-05T15:26:35;5.40;99.90
2100;DHT22;1055;48.854;9.302;2023-03-05T15:29:01;5.40;99.90
2100;DHT22;1055;48.854;9.302;2023-03-05T15:31:27;5.50;99.90
2100;DHT22;1055;48.854;9.302;2023-03-05T15:33:54;5.40;99.90
2100;DHT22;1055;48.854;9.302;2023-03-05T15:36:19;5.20;99.90
2100;DHT22;1055;48.854;9.302;2023-03-05T15:38:45;5.40;99.90
2100;DHT22;1055;48.854;9.302;2023-03-05T15:41:12;5.30;99.90
2100;DHT22;1055;48.854;9.302;2023-03-05T15:43:38;5.20;99.90
2100;DHT22;1055;48.854;9.302;2023-03-05T15:46:05;5.20;99.90
2100;DHT22;1055;48.854;9.302;2023-03-05T15:48:31;5.20;99.90
2100;DHT22;1055;48.854;9.302;2023-03-05T15:50:56;5.10;99.90
2100;DHT22;1055;48.854;9.302;2023-03-05T15:53:22;5.20;99.90
2100;DHT22;1055;48.854;9.302;2023-03-05T15:55:47;5.20;99.90
2100;DHT22;1055;48.854;9.302;2023-03-05T15:58:15;5.00;99.90
2100;DHT22;1055;48.854;9.302;2023-03-05T16:00:41;4.90;99.90
2100;DHT22;1055;48.854;9.302;2023-03-05T16:03:07;4.90;99.90
2100;DHT22;1055;48.854;9.302;2023-03-05T16:05:34;5.10;99.90
2100;DHT22;1055;48.854;9.302;2023-03-05T16:08:00;5.00;99.90
2100;DHT22;1055;48.854;9.302;2023-03-05T16:10:27;5.00;99.90
2100;DHT22;1055;48.854;9.302;2023-03-05T16:13:01;5.10;99.90
2100;DHT22;1055;48.854;9.302;2023-03-05T16:15:29;5.20;99.90
2100;DHT22;1055;48.854;9.302;2023-03-05T16:17:57;5.30;99.90
2100;DHT22;1055;48.854;9.302;2023-03-05T16:20:23;5.20;99.90
2100;DHT22;1055;48.854;9.302;2023-03-05T16:22:49;5.10;99.90
2100;DHT22;1055;48.854;9.302;2023-03-05T16:25:15;4.90;99.90
2100;DHT22;1055;48.854;9.302;2023-03-05T16:27:40;4.80;99.90
2100;DHT22;1055;48.854;9.302;2023-03-05T16:30:07;5.00;99.90
2100;DHT22;1055;48.854;9.302;2023-03-05T16:32:33;5.10;99.90
2100;DHT22;1055;48.854;9.302;2023-03-05T16:34:59;5.00;99.90
2100;DHT22;1055;48.854;9.302;2023-03-05T16:37:24;5.00;99.90
2100;DHT22;1055;48.854;9.302;2023-03-05T16:39:50;4.80;99.90
2100;DHT22;1055;48.854;9.302;2023-03-05T16:42:16;4.90;99.90
2100;DHT22;1055;48.854;9.302;2023-03-05T16:44:42;4.80;99.90
2100;DHT22;1055;48.854;9.302;2023-03-05T16:47:09;4.70;99.90
2100;DHT22;1055;48.854;9.302;2023-03-05T16:49:37;4.70;99.90
2100;DHT22;1055;48.854;9.302;2023-03-05T16:52:04;4.60;99.90
2100;DHT22;1055;48.854;9.302;2023-03-05T16:54:30;4.60;99.90
2100;DHT22;1055;48.854;9.302;2023-03-05T16:56:57;4.60;99.90
2100;DHT22;1055;48.854;9.302;2023-03-05T16:59:23;4.60;99.90
2100;DHT22;1055;48.854;9.302;2023-03-05T17:01:49;4.50;99.90
2100;DHT22;1055;48.854;9.302;2023-03-05T17:04:15;4.50;99.90
2100;DHT22;1055;48.854;9.302;2023-03-05T17:06:44;4.50;99.90
2100;DHT22;1055;48.854;9.302;2023-03-05T17:09:10;4.40;99.90
2100;DHT22;1055;48.854;9.302;2023-03-05T17:11:35;4.40;99.90
2100;DHT22;1055;48.854;9.302;2023-03-05T17:14:01;4.50;99.90
2100;DHT22;1055;48.854;9.302;2023-03-05T17:16:28;4.60;99.90
2100;DHT22;1055;48.854;9.302;2023-03-05T17:18:54;4.70;99.90
2100;DHT22;1055;48.854;9.302;2023-03-05T17:21:20;4.70;99.90
2100;DHT22;1055;48.854;9.302;2023-03-05T17:23:46;4.70;99.90
2100;DHT22;1055;48.854;9.302;2023-03-05T17:26:14;4.70;99.90
2100;DHT22;1055;48.854;9.302;2023-03-05T17:28:40;4.70;99.90
2100;DHT22;1055;48.854;9.302;2023-03-05T17:31:07;4.70;99.90
2100;DHT22;1055;48.854;9.302;2023-03-05T17:33:33;4.70;99.90
2100;DHT22;1055;48.854;9.302;2023-03-05T17:35:59;4.90;99.90